Aviation Digital Data Service (ADDS)

Output produced by METARs form (1336 UTC 23 January 2019)
found at http://www.aviationweather.gov/metar/data/
 
METAR text: RJSI 231000Z 24006KT 200V340 9999 -SHSNRA FEW020 SCT030 BKN050 01/M01 Q1007
Conditions at: RJSI (HANAMAKI AIRPORT, JP) observed 1000 UTC 23 January 2019
Temperature: 1.0°C (34°F)
Dewpoint: -1.0°C (30°F) [RH = 86%]
Pressure (altimeter): 29.73 inches Hg (1007.0 mb)
Winds: from the WSW (240 degrees) at 7 MPH (6 knots; 3.1 m/s)
Visibility: 6 or more miles (10+ km)
Ceiling: 5000 feet AGL
Clouds: few clouds at 2000 feet AGL
scattered clouds at 3000 feet AGL
broken clouds at 5000 feet AGL
Weather: -SHSN -SHRA  (light snow showers, light rain showers)

METAR text: RJSI 230929Z 18006KT 150V220 8000 -SHSNRA FEW010 SCT030 BKN050 02/01 Q1006 RMK 1CU010 3CU030 5CU050 A2973
Conditions at: RJSI (HANAMAKI AIRPORT, JP) observed 0929 UTC 23 January 2019
Temperature: 2.0°C (36°F)
Dewpoint: 1.0°C (34°F) [RH = 93%]
Pressure (altimeter): 29.70 inches Hg (1006.0 mb)
Winds: from the S (180 degrees) at 7 MPH (6 knots; 3.1 m/s)
Visibility: 5 miles ( 8 km)
Ceiling: 5000 feet AGL
Clouds: few clouds at 1000 feet AGL
scattered clouds at 3000 feet AGL
broken clouds at 5000 feet AGL
Weather: -SHSN -SHRA  (light snow showers, light rain showers)

METAR text: RJSI 230900Z VRB02KT 4000 -SHSNRA FEW008 SCT020 BKN030 01/01 Q1006
Conditions at: RJSI (HANAMAKI AIRPORT, JP) observed 0900 UTC 23 January 2019
Temperature: 1.0°C (34°F)
Dewpoint: 1.0°C (34°F) [RH = 100%]
Pressure (altimeter): 29.70 inches Hg (1006.0 mb)
Winds: variable direction winds at 2 MPH (2 knots; 1.0 m/s)
Visibility: 2.49 miles (4.01 km)
Ceiling: 3000 feet AGL
Clouds: few clouds at 800 feet AGL
scattered clouds at 2000 feet AGL
broken clouds at 3000 feet AGL
Weather: -SHSN -SHRA  (light snow showers, light rain showers)

METAR text: RJSI 230800Z 20009KT 4000 -SHSNRA FEW006 SCT010 BKN020 02/01 Q1005
Conditions at: RJSI (HANAMAKI AIRPORT, JP) observed 0800 UTC 23 January 2019
Temperature: 2.0°C (36°F)
Dewpoint: 1.0°C (34°F) [RH = 93%]
Pressure (altimeter): 29.68 inches Hg (1005.0 mb)
Winds: from the SSW (200 degrees) at 10 MPH (9 knots; 4.6 m/s)
Visibility: 2.49 miles (4.01 km)
Ceiling: 2000 feet AGL
Clouds: few clouds at 600 feet AGL
scattered clouds at 1000 feet AGL
broken clouds at 2000 feet AGL
Weather: -SHSN -SHRA  (light snow showers, light rain showers)

METAR text: RJSI 230700Z 17012KT 4000 -SHSN FEW006 SCT010 BKN020 02/01 Q1004
Conditions at: RJSI (HANAMAKI AIRPORT, JP) observed 0700 UTC 23 January 2019
Temperature: 2.0°C (36°F)
Dewpoint: 1.0°C (34°F) [RH = 93%]
Pressure (altimeter): 29.65 inches Hg (1004.0 mb)
Winds: from the S (170 degrees) at 14 MPH (12 knots; 6.2 m/s)
Visibility: 2.49 miles (4.01 km)
Ceiling: 2000 feet AGL
Clouds: few clouds at 600 feet AGL
scattered clouds at 1000 feet AGL
broken clouds at 2000 feet AGL
Weather: -SHSN  (light snow showers)

METAR text: RJSI 230637Z 19012KT 4000 -SHSN FEW006 SCT010 BKN020 02/00 Q1005 RMK 1ST006 4CU010 6CU020 A2968
Conditions at: RJSI (HANAMAKI AIRPORT, JP) observed 0637 UTC 23 January 2019
Temperature: 2.0°C (36°F)
Dewpoint: 0.0°C (32°F) [RH = 87%]
Pressure (altimeter): 29.68 inches Hg (1005.0 mb)
Winds: from the S (190 degrees) at 14 MPH (12 knots; 6.2 m/s)
Visibility: 2.49 miles (4.01 km)
Ceiling: 2000 feet AGL
Clouds: few clouds at 600 feet AGL
scattered clouds at 1000 feet AGL
broken clouds at 2000 feet AGL
Weather: -SHSN  (light snow showers)

METAR text: RJSI 230600Z 20012KT 8000 -SHSNRA FEW015 SCT025 BKN035 03/M01 Q1005
Conditions at: RJSI (HANAMAKI AIRPORT, JP) observed 0600 UTC 23 January 2019
Temperature: 3.0°C (37°F)
Dewpoint: -1.0°C (30°F) [RH = 75%]
Pressure (altimeter): 29.68 inches Hg (1005.0 mb)
Winds: from the SSW (200 degrees) at 14 MPH (12 knots; 6.2 m/s)
Visibility: 5 miles ( 8 km)
Ceiling: 3500 feet AGL
Clouds: few clouds at 1500 feet AGL
scattered clouds at 2500 feet AGL
broken clouds at 3500 feet AGL
Weather: -SHSN -SHRA  (light snow showers, light rain showers)

METAR text: RJSI 230530Z 19010KT 6000 -SHSN FEW010 SCT020 BKN030 04/M01 Q1005 RMK 1CU010 3CU020 6CU030 A2970
Conditions at: RJSI (HANAMAKI AIRPORT, JP) observed 0530 UTC 23 January 2019
Temperature: 4.0°C (39°F)
Dewpoint: -1.0°C (30°F) [RH = 70%]
Pressure (altimeter): 29.68 inches Hg (1005.0 mb)
Winds: from the S (190 degrees) at 12 MPH (10 knots; 5.1 m/s)
Visibility: 4 miles ( 6 km)
Ceiling: 3000 feet AGL
Clouds: few clouds at 1000 feet AGL
scattered clouds at 2000 feet AGL
broken clouds at 3000 feet AGL
Weather: -SHSN  (light snow showers)

METAR text: RJSI 230500Z 26004KT 230V290 9999 VCSH FEW020 SCT030 BKN040 03/M01 Q1006
Conditions at: RJSI (HANAMAKI AIRPORT, JP) observed 0500 UTC 23 January 2019
Temperature: 3.0°C (37°F)
Dewpoint: -1.0°C (30°F) [RH = 75%]
Pressure (altimeter): 29.70 inches Hg (1006.0 mb)
Winds: from the W (260 degrees) at 5 MPH (4 knots; 2.1 m/s)
Visibility: 6 or more miles (10+ km)
Ceiling: 4000 feet AGL
Clouds: few clouds at 2000 feet AGL
scattered clouds at 3000 feet AGL
broken clouds at 4000 feet AGL
Weather: VCSH  (showers in vicinity)

METAR text: RJSI 230400Z 24005KT 200V280 9999 FEW020 SCT030 BKN040 02/M02 Q1007
Conditions at: RJSI (HANAMAKI AIRPORT, JP) observed 0400 UTC 23 January 2019
Temperature: 2.0°C (36°F)
Dewpoint: -2.0°C (28°F) [RH = 75%]
Pressure (altimeter): 29.73 inches Hg (1007.0 mb)
Winds: from the WSW (240 degrees) at 6 MPH (5 knots; 2.6 m/s)
Visibility: 6 or more miles (10+ km)
Ceiling: 4000 feet AGL
Clouds: few clouds at 2000 feet AGL
scattered clouds at 3000 feet AGL
broken clouds at 4000 feet AGL
Weather: no significant weather observed at this time

METAR text: RJSI 230300Z 23005KT 190V290 9999 VCSH FEW020 SCT040 BKN060 02/M02 Q1009
Conditions at: RJSI (HANAMAKI AIRPORT, JP) observed 0300 UTC 23 January 2019
Temperature: 2.0°C (36°F)
Dewpoint: -2.0°C (28°F) [RH = 75%]
Pressure (altimeter): 29.79 inches Hg (1009.0 mb)
Winds: from the SW (230 degrees) at 6 MPH (5 knots; 2.6 m/s)
Visibility: 6 or more miles (10+ km)
Ceiling: 6000 feet AGL
Clouds: few clouds at 2000 feet AGL
scattered clouds at 4000 feet AGL
broken clouds at 6000 feet AGL
Weather: VCSH  (showers in vicinity)

METAR text: RJSI 230200Z 26004KT 210V310 9999 -SHSN FEW010 SCT030 BKN060 01/M02 Q1011
Conditions at: RJSI (HANAMAKI AIRPORT, JP) observed 0200 UTC 23 January 2019
Temperature: 1.0°C (34°F)
Dewpoint: -2.0°C (28°F) [RH = 80%]
Pressure (altimeter): 29.85 inches Hg (1011.0 mb)
Winds: from the W (260 degrees) at 5 MPH (4 knots; 2.1 m/s)
Visibility: 6 or more miles (10+ km)
Ceiling: 6000 feet AGL
Clouds: few clouds at 1000 feet AGL
scattered clouds at 3000 feet AGL
broken clouds at 6000 feet AGL
Weather: -SHSN  (light snow showers)

METAR text: RJSI 230100Z 24004KT 150V300 9999 -SHSN FEW006 SCT030 BKN060 01/M02 Q1012
Conditions at: RJSI (HANAMAKI AIRPORT, JP) observed 0100 UTC 23 January 2019
Temperature: 1.0°C (34°F)
Dewpoint: -2.0°C (28°F) [RH = 80%]
Pressure (altimeter): 29.88 inches Hg (1012.0 mb)
Winds: from the WSW (240 degrees) at 5 MPH (4 knots; 2.1 m/s)
Visibility: 6 or more miles (10+ km)
Ceiling: 6000 feet AGL
Clouds: few clouds at 600 feet AGL
scattered clouds at 3000 feet AGL
broken clouds at 6000 feet AGL
Weather: -SHSN  (light snow showers)

METAR text: RJSI 230000Z VRB02KT 9999 -SHSN FEW006 SCT030 BKN060 M01/M02 Q1012
Conditions at: RJSI (HANAMAKI AIRPORT, JP) observed 0000 UTC 23 January 2019
Temperature: -1.0°C (30°F)
Dewpoint: -2.0°C (28°F) [RH = 93%]
Pressure (altimeter): 29.88 inches Hg (1012.0 mb)
Winds: variable direction winds at 2 MPH (2 knots; 1.0 m/s)
Visibility: 6 or more miles (10+ km)
Ceiling: 6000 feet AGL
Clouds: few clouds at 600 feet AGL
scattered clouds at 3000 feet AGL
broken clouds at 6000 feet AGL
Weather: -SHSN  (light snow showers)

METAR text: RJSI 222300Z 08002KT 9999 FEW004 SCT008 BKN025 M02/M02 Q1013
Conditions at: RJSI (HANAMAKI AIRPORT, JP) observed 2300 UTC 22 January 2019
Temperature: -2.0°C (28°F)
Dewpoint: -2.0°C (28°F) [RH = 100%]
Pressure (altimeter): 29.91 inches Hg (1013.0 mb)
Winds: from the E (80 degrees) at 2 MPH (2 knots; 1.0 m/s)
Visibility: 6 or more miles (10+ km)
Ceiling: 2500 feet AGL
Clouds: few clouds at 400 feet AGL
scattered clouds at 800 feet AGL
broken clouds at 2500 feet AGL
Weather: no significant weather observed at this time

METAR text: RJSI 222240Z 14001KT 6000 -SHSN FEW004 SCT008 BKN025 M02/M03 Q1013 RMK 1ST004 3ST008 5CU025 A2992
Conditions at: RJSI (HANAMAKI AIRPORT, JP) observed 2240 UTC 22 January 2019
Temperature: -2.0°C (28°F)
Dewpoint: -3.0°C (27°F) [RH = 93%]
Pressure (altimeter): 29.91 inches Hg (1013.0 mb)
Winds: from the SE (140 degrees) at 1 MPH (1 knots; 0.5 m/s)
Visibility: 4 miles ( 6 km)
Ceiling: 2500 feet AGL
Clouds: few clouds at 400 feet AGL
scattered clouds at 800 feet AGL
broken clouds at 2500 feet AGL
Weather: -SHSN  (light snow showers)

METAR text: RJSI 221000Z VRB01KT 9999 FEW030 M02/M07 Q1012
Conditions at: RJSI (HANAMAKI AIRPORT, JP) observed 1000 UTC 22 January 2019
Temperature: -2.0°C (28°F)
Dewpoint: -7.0°C (19°F) [RH = 69%]
Pressure (altimeter): 29.88 inches Hg (1012.0 mb)
Winds: variable direction winds at 1 MPH (1 knots; 0.5 m/s)
Visibility: 6 or more miles (10+ km)
Ceiling: at least 12,000 feet AGL
Clouds: few clouds at 3000 feet AGL
Weather: no significant weather observed at this time

METAR text: RJSI 220900Z 30005KT 250V350 9999 FEW020 SCT040 M00/M07 Q1011
Conditions at: RJSI (HANAMAKI AIRPORT, JP) observed 0900 UTC 22 January 2019
Temperature: 0.0°C (32°F)
Dewpoint: -7.0°C (19°F) [RH = 59%]
Pressure (altimeter): 29.85 inches Hg (1011.0 mb)
Winds: from the WNW (300 degrees) at 6 MPH (5 knots; 2.6 m/s)
Visibility: 6 or more miles (10+ km)
Ceiling: at least 12,000 feet AGL
Clouds: few clouds at 2000 feet AGL
scattered clouds at 4000 feet AGL
Weather: no significant weather observed at this time

METAR text: RJSI 220800Z 27007KT 230V310 9999 VCSH FEW020 SCT040 M01/M07 Q1011
Conditions at: RJSI (HANAMAKI AIRPORT, JP) observed 0800 UTC 22 January 2019
Temperature: -1.0°C (30°F)
Dewpoint: -7.0°C (19°F) [RH = 64%]
Pressure (altimeter): 29.85 inches Hg (1011.0 mb)
Winds: from the W (270 degrees) at 8 MPH (7 knots; 3.6 m/s)
Visibility: 6 or more miles (10+ km)
Ceiling: at least 12,000 feet AGL
Clouds: few clouds at 2000 feet AGL
scattered clouds at 4000 feet AGL
Weather: VCSH  (showers in vicinity)

METAR text: RJSI 220700Z 30006KT 260V340 9999 VCSH FEW020 SCT040 01/M08 Q1011
Conditions at: RJSI (HANAMAKI AIRPORT, JP) observed 0700 UTC 22 January 2019
Temperature: 1.0°C (34°F)
Dewpoint: -8.0°C (18°F) [RH = 51%]
Pressure (altimeter): 29.85 inches Hg (1011.0 mb)
Winds: from the WNW (300 degrees) at 7 MPH (6 knots; 3.1 m/s)
Visibility: 6 or more miles (10+ km)
Ceiling: at least 12,000 feet AGL
Clouds: few clouds at 2000 feet AGL
scattered clouds at 4000 feet AGL
Weather: VCSH  (showers in vicinity)

METAR text: RJSI 220600Z 28010G27KT 230V340 9999 VCSH FEW020 SCT040 01/M08 Q1010
Conditions at: RJSI (HANAMAKI AIRPORT, JP) observed 0600 UTC 22 January 2019
Temperature: 1.0°C (34°F)
Dewpoint: -8.0°C (18°F) [RH = 51%]
Pressure (altimeter): 29.82 inches Hg (1010.0 mb)
Winds: from the W (280 degrees) at 12 MPH (10 knots; 5.1 m/s)
gusting to 31 MPH (27 knots; 13.9 m/s)
Visibility: 6 or more miles (10+ km)
Ceiling: at least 12,000 feet AGL
Clouds: few clouds at 2000 feet AGL
scattered clouds at 4000 feet AGL
Weather: VCSH  (showers in vicinity)

METAR text: RJSI 220500Z 29008KT 240V340 9999 FEW020 SCT040 02/M07 Q1010
Conditions at: RJSI (HANAMAKI AIRPORT, JP) observed 0500 UTC 22 January 2019
Temperature: 2.0°C (36°F)
Dewpoint: -7.0°C (19°F) [RH = 51%]
Pressure (altimeter): 29.82 inches Hg (1010.0 mb)
Winds: from the WNW (290 degrees) at 9 MPH (8 knots; 4.1 m/s)
Visibility: 6 or more miles (10+ km)
Ceiling: at least 12,000 feet AGL
Clouds: few clouds at 2000 feet AGL
scattered clouds at 4000 feet AGL
Weather: no significant weather observed at this time

METAR text: RJSI 220400Z 28011KT 240V330 9999 FEW020 SCT040 02/M07 Q1009
Conditions at: RJSI (HANAMAKI AIRPORT, JP) observed 0400 UTC 22 January 2019
Temperature: 2.0°C (36°F)
Dewpoint: -7.0°C (19°F) [RH = 51%]
Pressure (altimeter): 29.79 inches Hg (1009.0 mb)
Winds: from the W (280 degrees) at 13 MPH (11 knots; 5.7 m/s)
Visibility: 6 or more miles (10+ km)
Ceiling: at least 12,000 feet AGL
Clouds: few clouds at 2000 feet AGL
scattered clouds at 4000 feet AGL
Weather: no significant weather observed at this time

METAR text: RJSI 220300Z 29012KT 250V330 9999 FEW020 SCT040 02/M07 Q1009
Conditions at: RJSI (HANAMAKI AIRPORT, JP) observed 0300 UTC 22 January 2019
Temperature: 2.0°C (36°F)
Dewpoint: -7.0°C (19°F) [RH = 51%]
Pressure (altimeter): 29.79 inches Hg (1009.0 mb)
Winds: from the WNW (290 degrees) at 14 MPH (12 knots; 6.2 m/s)
Visibility: 6 or more miles (10+ km)
Ceiling: at least 12,000 feet AGL
Clouds: few clouds at 2000 feet AGL
scattered clouds at 4000 feet AGL
Weather: no significant weather observed at this time

METAR text: RJSI 220200Z 27008KT 220V320 9999 FEW020 SCT040 BKN060 02/M06 Q1009
Conditions at: RJSI (HANAMAKI AIRPORT, JP) observed 0200 UTC 22 January 2019
Temperature: 2.0°C (36°F)
Dewpoint: -6.0°C (21°F) [RH = 55%]
Pressure (altimeter): 29.79 inches Hg (1009.0 mb)
Winds: from the W (270 degrees) at 9 MPH (8 knots; 4.1 m/s)
Visibility: 6 or more miles (10+ km)
Ceiling: 6000 feet AGL
Clouds: few clouds at 2000 feet AGL
scattered clouds at 4000 feet AGL
broken clouds at 6000 feet AGL
Weather: no significant weather observed at this time